Time,TemperatureF,DewpointF,PressureIn,WindDirection,WindDirectionDegrees,WindSpeedMPH,WindSpeedGustMPH,Humidity,HourlyPrecipIn,Conditions,Clouds,dailyrainin,SoftwareType,DateUTC
2013-03-17 00:00:00,25.3,21.4,30.22,ENE,62,8.0,8.0,85,0.00,,,0.00,Wunderground v.1.15,2013-03-17 05:00:00,
2013-03-17 00:10:00,25.3,21.4,30.22,ENE,78,4.0,11.0,85,0.00,,,0.00,Wunderground v.1.15,2013-03-17 05:10:00,
2013-03-17 00:20:00,25.2,21.3,30.22,ENE,67,7.0,11.0,85,0.00,,,0.00,Wunderground v.1.15,2013-03-17 05:20:00,
2013-03-17 00:25:00,25.2,21.6,30.21,East,93,7.0,11.0,86,0.00,,,0.00,Wunderground v.1.15,2013-03-17 05:25:00,
2013-03-17 00:35:00,25.4,21.8,30.21,NE,42,8.0,12.0,86,0.00,,,0.00,Wunderground v.1.15,2013-03-17 05:35:00,
2013-03-17 00:40:00,25.4,21.8,30.20,NE,41,9.0,12.0,86,0.00,,,0.00,Wunderground v.1.15,2013-03-17 05:40:00,
2013-03-17 00:50:00,25.4,21.8,30.21,ENE,71,9.0,11.0,86,0.00,,,0.00,Wunderground v.1.15,2013-03-17 05:50:00,
2013-03-17 01:00:00,25.3,21.7,30.21,ENE,67,9.0,9.0,86,0.00,,,0.00,Wunderground v.1.15,2013-03-17 06:00:00,
2013-03-17 01:10:00,25.3,21.7,30.22,ENE,60,7.0,7.0,86,0.00,,,0.00,Wunderground v.1.15,2013-03-17 06:10:00,
2013-03-17 01:20:00,25.4,21.8,30.21,East,80,6.0,6.0,86,0.00,,,0.00,Wunderground v.1.15,2013-03-17 06:20:00,
2013-03-17 01:30:00,25.3,21.7,30.21,ENE,76,6.0,11.0,86,0.00,,,0.00,Wunderground v.1.15,2013-03-17 06:30:00,
2013-03-17 01:40:00,25.3,21.7,30.21,ENE,74,5.0,11.0,86,0.00,,,0.00,Wunderground v.1.15,2013-03-17 06:40:00,
2013-03-17 01:45:00,25.2,21.6,30.20,ENE,68,5.0,11.0,86,0.00,,,0.00,Wunderground v.1.15,2013-03-17 06:45:00,
2013-03-17 01:50:00,25.2,21.6,30.19,East,83,6.0,11.0,86,0.00,,,0.00,Wunderground v.1.15,2013-03-17 06:50:00,
2013-03-17 02:00:00,25.3,21.7,30.19,East,92,6.0,11.0,86,0.00,,,0.00,Wunderground v.1.15,2013-03-17 07:00:00,
2013-03-17 02:10:00,25.2,21.6,30.19,East,100,6.0,6.0,86,0.00,,,0.00,Wunderground v.1.15,2013-03-17 07:10:00,
2013-03-17 02:20:00,25.3,21.7,30.20,ENE,77,5.0,11.0,86,0.00,,,0.00,Wunderground v.1.15,2013-03-17 07:20:00,
2013-03-17 02:25:00,25.3,21.7,30.19,ENE,77,4.0,11.0,86,0.00,,,0.00,Wunderground v.1.15,2013-03-17 07:25:00,
2013-03-17 02:30:00,25.3,21.7,30.20,ENE,76,3.0,3.0,86,0.00,,,0.00,Wunderground v.1.15,2013-03-17 07:30:00,
2013-03-17 02:40:00,25.4,21.8,30.20,ENE,71,3.0,3.0,86,0.00,,,0.00,Wunderground v.1.15,2013-03-17 07:40:00,
2013-03-17 02:50:00,25.4,21.8,30.19,ENE,67,3.0,3.0,86,0.00,,,0.00,Wunderground v.1.15,2013-03-17 07:50:00,
2013-03-17 03:00:00,25.4,21.8,30.18,ENE,75,4.0,11.0,86,0.00,,,0.00,Wunderground v.1.15,2013-03-17 08:00:00,
2013-03-17 03:10:00,25.4,21.8,30.18,East,81,4.0,11.0,86,0.00,,,0.00,Wunderground v.1.15,2013-03-17 08:10:00,
2013-03-17 03:20:00,25.4,21.8,30.17,East,88,4.0,11.0,86,0.00,,,0.00,Wunderground v.1.15,2013-03-17 08:20:00,
2013-03-17 03:25:00,25.4,22.1,30.17,East,99,5.0,11.0,87,0.00,,,0.00,Wunderground v.1.15,2013-03-17 08:25:00,
2013-03-17 03:35:00,25.4,22.1,30.16,East,91,6.0,11.0,87,0.00,,,0.00,Wunderground v.1.15,2013-03-17 08:35:00,
2013-03-17 03:40:00,25.4,22.1,30.16,East,98,6.0,11.0,87,0.00,,,0.00,Wunderground v.1.15,2013-03-17 08:40:00,
2013-03-17 03:50:00,25.4,22.1,30.14,East,94,7.0,11.0,87,0.00,,,0.00,Wunderground v.1.15,2013-03-17 08:50:00,
2013-03-17 04:00:00,25.2,21.9,30.14,East,94,8.0,8.0,87,0.00,,,0.00,Wunderground v.1.15,2013-03-17 09:00:00,
2013-03-17 04:10:00,25.2,21.9,30.14,East,92,8.0,12.0,87,0.00,,,0.00,Wunderground v.1.15,2013-03-17 09:10:00,
2013-03-17 04:20:00,24.9,21.3,30.13,East,100,10.0,10.0,86,0.00,,,0.00,Wunderground v.1.15,2013-03-17 09:20:00,
2013-03-17 04:25:00,24.9,21.3,30.13,ESE,111,9.0,11.0,86,0.00,,,0.00,Wunderground v.1.15,2013-03-17 09:25:00,
2013-03-17 04:30:00,24.9,21.3,30.13,East,92,9.0,9.0,86,0.00,,,0.00,Wunderground v.1.15,2013-03-17 09:30:00,
2013-03-17 04:40:00,24.9,21.3,30.12,East,97,9.0,11.0,86,0.00,,,0.00,Wunderground v.1.15,2013-03-17 09:40:00,
2013-03-17 04:50:00,24.8,21.2,30.12,East,92,10.0,11.0,86,0.00,,,0.00,Wunderground v.1.15,2013-03-17 09:50:00,
2013-03-17 05:00:00,24.6,21.0,30.12,East,96,9.0,11.0,86,0.00,,,0.00,Wunderground v.1.15,2013-03-17 10:00:00,
2013-03-17 05:05:00,24.5,20.9,30.12,East,97,9.0,11.0,86,0.00,,,0.00,Wunderground v.1.15,2013-03-17 10:05:00,
2013-03-17 05:10:00,24.5,20.9,30.12,East,95,8.0,8.0,86,0.00,,,0.00,Wunderground v.1.15,2013-03-17 10:10:00,
2013-03-17 05:20:00,24.3,20.7,30.11,East,98,10.0,10.0,86,0.00,,,0.00,Wunderground v.1.15,2013-03-17 10:20:00,
2013-03-17 05:30:00,24.2,20.6,30.11,East,95,9.0,9.0,86,0.00,,,0.00,Wunderground v.1.15,2013-03-17 10:30:00,
2013-03-17 05:40:00,24.1,20.5,30.11,ESE,107,8.0,11.0,86,0.00,,,0.00,Wunderground v.1.15,2013-03-17 10:40:00,
2013-03-17 05:50:00,24.0,20.4,30.11,East,94,8.0,12.0,86,0.00,,,0.00,Wunderground v.1.15,2013-03-17 10:50:00,
2013-03-17 06:00:00,23.8,20.2,30.12,East,95,7.0,15.0,86,0.00,,,0.00,Wunderground v.1.15,2013-03-17 11:00:00,
2013-03-17 06:10:00,23.6,20.3,30.12,East,98,7.0,7.0,87,0.00,,,0.00,Wunderground v.1.15,2013-03-17 11:10:00,
2013-03-17 06:20:00,23.4,20.1,30.12,ESE,105,7.0,7.0,87,0.00,,,0.00,Wunderground v.1.15,2013-03-17 11:20:00,
2013-03-17 06:25:00,23.4,19.8,30.12,East,101,6.0,15.0,86,0.00,,,0.00,Wunderground v.1.15,2013-03-17 11:25:00,
2013-03-17 06:30:00,23.3,19.7,30.13,East,98,5.0,15.0,86,0.00,,,0.00,Wunderground v.1.15,2013-03-17 11:30:00,
2013-03-17 06:40:00,23.3,19.7,30.13,ESE,104,6.0,6.0,86,0.00,,,0.00,Wunderground v.1.15,2013-03-17 11:40:00,
2013-03-17 06:50:00,23.3,20.0,30.12,ESE,105,4.0,4.0,87,0.00,,,0.00,Wunderground v.1.15,2013-03-17 11:50:00,
2013-03-17 07:00:00,23.4,20.1,30.12,ESE,111,4.0,15.0,87,0.00,,,0.00,Wunderground v.1.15,2013-03-17 12:00:00,
2013-03-17 07:10:00,23.4,20.1,30.12,ESE,107,4.0,4.0,87,0.00,,,0.00,Wunderground v.1.15,2013-03-17 12:10:00,
2013-03-17 07:20:00,23.5,20.2,30.11,ESE,109,4.0,15.0,87,0.00,,,0.00,Wunderground v.1.15,2013-03-17 12:20:00,
2013-03-17 07:30:00,23.5,20.2,30.12,ESE,109,5.0,5.0,87,0.00,,,0.00,Wunderground v.1.15,2013-03-17 12:30:00,
2013-03-17 07:35:00,23.5,20.2,30.12,ESE,114,4.0,15.0,87,0.00,,,0.00,Wunderground v.1.15,2013-03-17 12:35:00,
2013-03-17 07:45:00,23.6,20.3,30.11,ESE,114,3.0,15.0,87,0.00,,,0.00,Wunderground v.1.15,2013-03-17 12:45:00,
2013-03-17 07:50:00,23.8,20.5,30.11,ESE,119,3.0,3.0,87,0.00,,,0.00,Wunderground v.1.15,2013-03-17 12:50:00,
2013-03-17 08:00:00,23.9,20.6,30.11,SE,132,3.0,15.0,87,0.00,,,0.00,Wunderground v.1.15,2013-03-17 13:00:00,
2013-03-17 08:10:00,24.0,20.7,30.12,SE,134,4.0,15.0,87,0.00,,,0.00,Wunderground v.1.15,2013-03-17 13:10:00,
2013-03-17 08:20:00,24.0,20.7,30.12,SE,142,3.0,15.0,87,0.00,,,0.00,Wunderground v.1.15,2013-03-17 13:20:00,
2013-03-17 08:25:00,24.0,20.7,30.12,SSE,147,3.0,15.0,87,0.00,,,0.00,Wunderground v.1.15,2013-03-17 13:25:00,
2013-03-17 08:35:00,24.2,20.6,30.11,SSE,150,4.0,15.0,86,0.00,,,0.00,Wunderground v.1.15,2013-03-17 13:35:00,
2013-03-17 08:40:00,24.3,20.7,30.12,SSE,155,5.0,5.0,86,0.00,,,0.00,Wunderground v.1.15,2013-03-17 13:40:00,
2013-03-17 08:50:00,24.5,20.9,30.12,SSE,156,5.0,15.0,86,0.00,,,0.00,Wunderground v.1.15,2013-03-17 13:50:00,
2013-03-17 09:00:00,24.7,20.8,30.11,SSE,155,6.0,6.0,85,0.00,,,0.00,Wunderground v.1.15,2013-03-17 14:00:00,
2013-03-17 09:10:00,24.4,20.3,30.11,SE,140,5.0,5.0,84,0.00,,,0.00,Wunderground v.1.15,2013-03-17 14:10:00,
2013-03-17 09:20:00,24.8,20.7,30.11,SE,133,5.0,15.0,84,0.00,,,0.00,Wunderground v.1.15,2013-03-17 14:20:00,
2013-03-17 09:30:00,25.0,20.8,30.11,SSE,158,6.0,15.0,84,0.00,,,0.00,Wunderground v.1.15,2013-03-17 14:30:00,
2013-03-17 09:35:00,25.2,20.8,30.10,SE,139,6.0,15.0,83,0.00,,,0.00,Wunderground v.1.15,2013-03-17 14:35:00,
2013-03-17 09:45:00,25.6,21.2,30.09,SE,144,6.0,15.0,83,0.00,,,0.00,Wunderground v.1.15,2013-03-17 14:45:00,
2013-03-17 09:50:00,25.5,20.8,30.09,SE,146,6.0,15.0,82,0.00,,,0.00,Wunderground v.1.15,2013-03-17 14:50:00,
2013-03-17 10:00:00,25.9,21.2,30.08,SSE,153,8.0,8.0,82,0.00,,,0.00,Wunderground v.1.15,2013-03-17 15:00:00,
2013-03-17 10:10:00,27.4,21.7,30.08,SSE,157,7.0,7.0,79,0.00,,,0.00,Wunderground v.1.15,2013-03-17 15:10:00,
2013-03-17 10:20:00,27.6,21.3,30.08,South,175,8.0,15.0,77,0.00,,,0.00,Wunderground v.1.15,2013-03-17 15:20:00,
2013-03-17 10:30:00,28.3,22.9,30.08,SSE,157,9.0,15.0,80,0.00,,,0.00,Wunderground v.1.15,2013-03-17 15:30:00,
2013-03-17 10:40:00,30.1,23.4,30.06,SE,137,8.0,8.0,76,0.00,,,0.00,Wunderground v.1.15,2013-03-17 15:40:00,
2013-03-17 10:50:00,29.2,22.3,30.05,SSE,154,9.0,15.0,75,0.00,,,0.00,Wunderground v.1.15,2013-03-17 15:50:00,
2013-03-17 11:00:00,29.5,21.9,30.05,SSE,156,11.0,11.0,73,0.00,,,0.00,Wunderground v.1.15,2013-03-17 16:00:00,
2013-03-17 11:10:00,31.0,23.0,30.04,SE,136,9.0,9.0,72,0.00,,,0.00,Wunderground v.1.15,2013-03-17 16:10:00,
2013-03-17 11:20:00,31.9,22.9,30.03,South,175,8.0,8.0,69,0.00,,,0.00,Wunderground v.1.15,2013-03-17 16:20:00,
2013-03-17 11:25:00,32.7,23.6,30.02,SE,142,9.0,11.0,69,0.00,,,0.00,Wunderground v.1.15,2013-03-17 16:25:00,
2013-03-17 11:30:00,33.3,23.2,30.02,SE,143,8.0,15.0,66,0.00,,,0.00,Wunderground v.1.15,2013-03-17 16:30:00,
2013-03-17 11:40:00,32.9,21.3,30.02,SSE,159,10.0,10.0,62,0.00,,,0.00,Wunderground v.1.15,2013-03-17 16:40:00,
2013-03-17 11:50:00,32.9,21.7,30.01,SE,140,11.0,15.0,63,0.00,,,0.00,Wunderground v.1.15,2013-03-17 16:50:00,
2013-03-17 12:00:00,34.3,22.2,30.01,ESE,123,10.0,20.0,61,0.00,,,0.00,Wunderground v.1.15,2013-03-17 17:00:00,
2013-03-17 12:10:00,34.7,21.4,30.00,SSE,161,12.0,20.0,58,0.00,,,0.00,Wunderground v.1.15,2013-03-17 17:10:00,
2013-03-17 12:15:00,35.0,22.1,29.99,South,173,12.0,20.0,59,0.00,,,0.00,Wunderground v.1.15,2013-03-17 17:15:00,
2013-03-17 12:25:00,35.3,21.2,29.99,South,171,12.0,19.0,56,0.00,,,0.00,Wunderground v.1.15,2013-03-17 17:25:00,
2013-03-17 12:30:00,35.7,21.9,29.98,South,173,12.0,12.0,57,0.00,,,0.00,Wunderground v.1.15,2013-03-17 17:30:00,
2013-03-17 12:40:00,36.3,22.5,29.97,SSE,168,13.0,20.0,57,0.00,,,0.00,Wunderground v.1.15,2013-03-17 17:40:00,
2013-03-17 12:50:00,37.4,21.8,29.96,South,169,11.0,11.0,53,0.00,,,0.00,Wunderground v.1.15,2013-03-17 17:50:00,
2013-03-17 13:00:00,37.1,21.1,29.95,SE,140,12.0,20.0,52,0.00,,,0.00,Wunderground v.1.15,2013-03-17 18:00:00,
2013-03-17 13:05:00,36.8,21.7,29.95,SSE,156,12.0,20.0,54,0.00,,,0.00,Wunderground v.1.15,2013-03-17 18:05:00,
2013-03-17 13:15:00,36.7,21.2,29.94,South,169,13.0,20.0,53,0.00,,,0.00,Wunderground v.1.15,2013-03-17 18:15:00,
2013-03-17 13:20:00,37.4,20.9,29.94,SSW,197,13.0,20.0,51,0.00,,,0.00,Wunderground v.1.15,2013-03-17 18:20:00,
2013-03-17 13:30:00,38.3,21.3,29.92,South,185,13.0,13.0,50,0.00,,,0.00,Wunderground v.1.15,2013-03-17 18:30:00,
2013-03-17 13:40:00,38.7,21.2,29.91,SSE,167,12.0,12.0,49,0.00,,,0.00,Wunderground v.1.15,2013-03-17 18:40:00,
2013-03-17 13:50:00,39.3,21.7,29.91,South,185,12.0,12.0,49,0.00,,,0.00,Wunderground v.1.15,2013-03-17 18:50:00,
2013-03-17 14:00:00,39.8,21.7,29.91,South,182,12.0,20.0,48,0.00,,,0.00,Wunderground v.1.15,2013-03-17 19:00:00,
2013-03-17 14:05:00,39.1,21.5,29.90,SSE,154,12.0,20.0,49,0.00,,,0.00,Wunderground v.1.15,2013-03-17 19:05:00,
2013-03-17 14:10:00,39.1,22.0,29.89,SSW,194,12.0,12.0,50,0.00,,,0.00,Wunderground v.1.15,2013-03-17 19:10:00,
2013-03-17 14:20:00,40.3,22.6,29.89,South,173,11.0,20.0,49,0.00,,,0.00,Wunderground v.1.15,2013-03-17 19:20:00,
2013-03-17 14:30:00,40.4,22.7,29.87,SSE,159,11.0,11.0,49,0.00,,,0.00,Wunderground v.1.15,2013-03-17 19:30:00,
2013-03-17 14:40:00,40.2,23.0,29.86,South,174,11.0,20.0,50,0.00,,,0.00,Wunderground v.1.15,2013-03-17 19:40:00,
2013-03-17 14:45:00,40.7,23.0,29.86,SSW,209,12.0,20.0,49,0.00,,,0.00,Wunderground v.1.15,2013-03-17 19:45:00,
2013-03-17 14:55:00,41.7,23.4,29.85,South,171,12.0,20.0,48,0.00,,,0.00,Wunderground v.1.15,2013-03-17 19:55:00,
2013-03-17 15:00:00,41.3,23.6,29.84,SSE,153,12.0,12.0,49,0.00,,,0.00,Wunderground v.1.15,2013-03-17 20:00:00,
2013-03-17 15:10:00,40.9,24.1,29.83,SSE,157,12.0,20.0,51,0.00,,,0.00,Wunderground v.1.15,2013-03-17 20:10:00,
2013-03-17 15:20:00,40.9,23.7,29.82,South,178,13.0,20.0,50,0.00,,,0.00,Wunderground v.1.15,2013-03-17 20:20:00,
2013-03-17 15:25:00,41.1,24.3,29.81,South,182,12.0,20.0,51,0.00,,,0.00,Wunderground v.1.15,2013-03-17 20:25:00,
2013-03-17 15:30:00,41.6,24.3,29.81,SSE,161,12.0,12.0,50,0.00,,,0.00,Wunderground v.1.15,2013-03-17 20:30:00,
2013-03-17 15:40:00,41.7,24.9,29.81,South,187,11.0,20.0,51,0.00,,,0.00,Wunderground v.1.15,2013-03-17 20:40:00,
2013-03-17 15:50:00,41.8,25.4,29.80,South,180,12.0,20.0,52,0.00,,,0.00,Wunderground v.1.15,2013-03-17 20:50:00,
2013-03-17 16:00:00,41.8,25.9,29.80,South,182,12.0,20.0,53,0.00,,,0.00,Wunderground v.1.15,2013-03-17 21:00:00,
2013-03-17 16:10:00,41.3,25.9,29.79,SSE,160,12.0,12.0,54,0.00,,,0.00,Wunderground v.1.15,2013-03-17 21:10:00,
2013-03-17 16:20:00,40.6,25.7,29.79,SSE,158,12.0,20.0,55,0.00,,,0.00,Wunderground v.1.15,2013-03-17 21:20:00,
2013-03-17 16:30:00,40.7,26.2,29.79,South,186,12.0,12.0,56,0.00,,,0.00,Wunderground v.1.15,2013-03-17 21:30:00,
2013-03-17 16:35:00,40.5,26.4,29.78,SSW,211,11.0,13.0,57,0.00,,,0.00,Wunderground v.1.15,2013-03-17 21:35:00,
2013-03-17 16:45:00,40.7,26.6,29.79,South,188,11.0,20.0,57,0.00,,,0.00,Wunderground v.1.15,2013-03-17 21:45:00,
2013-03-17 16:50:00,40.3,26.7,29.80,South,183,11.0,11.0,58,0.00,,,0.00,Wunderground v.1.15,2013-03-17 21:50:00,
2013-03-17 17:00:00,40.0,26.8,29.80,SSW,209,13.0,13.0,59,0.00,,,0.00,Wunderground v.1.15,2013-03-17 22:00:00,
2013-03-17 17:10:00,40.1,26.9,29.80,South,190,10.0,20.0,59,0.00,,,0.00,Wunderground v.1.15,2013-03-17 22:10:00,
2013-03-17 17:15:00,40.4,27.6,29.80,South,171,10.0,20.0,60,0.00,,,0.00,Wunderground v.1.15,2013-03-17 22:15:00,
2013-03-17 17:25:00,40.4,27.6,29.80,SSE,152,13.0,13.0,60,0.00,,,0.00,Wunderground v.1.15,2013-03-17 22:25:00,
2013-03-17 17:30:00,40.5,27.7,29.81,SSE,168,12.0,12.0,60,0.00,,,0.00,Wunderground v.1.15,2013-03-17 22:30:00,
2013-03-17 17:40:00,40.7,27.9,29.80,SSW,194,11.0,20.0,60,0.00,,,0.00,Wunderground v.1.15,2013-03-17 22:40:00,
2013-03-17 17:50:00,40.8,27.6,29.79,South,173,10.0,10.0,59,0.00,,,0.00,Wunderground v.1.15,2013-03-17 22:50:00,
2013-03-17 18:00:00,41.2,27.9,29.79,South,181,9.0,9.0,59,0.00,,,0.00,Wunderground v.1.15,2013-03-17 23:00:00,
2013-03-17 18:10:00,41.3,28.4,29.79,South,173,9.0,9.0,60,0.00,,,0.00,Wunderground v.1.15,2013-03-17 23:10:00,
2013-03-17 18:15:00,41.4,28.5,29.79,SSW,192,9.0,10.0,60,0.00,,,0.00,Wunderground v.1.15,2013-03-17 23:15:00,
2013-03-17 18:20:00,41.3,28.4,29.79,South,191,9.0,20.0,60,0.00,,,0.00,Wunderground v.1.15,2013-03-17 23:20:00,
2013-03-17 18:30:00,41.4,28.9,29.79,SSW,194,9.0,20.0,61,0.00,,,0.00,Wunderground v.1.15,2013-03-17 23:30:00,
2013-03-17 18:40:00,41.5,29.0,29.79,SSW,205,10.0,20.0,61,0.00,,,0.00,Wunderground v.1.15,2013-03-17 23:40:00,
2013-03-17 18:50:00,41.3,29.3,29.79,SW,220,11.0,20.0,62,0.00,,,0.00,Wunderground v.1.15,2013-03-17 23:50:00,
2013-03-17 19:00:00,41.0,29.0,29.80,SW,236,11.0,11.0,62,0.00,,,0.00,Wunderground v.1.15,2013-03-18 00:00:00,
2013-03-17 19:05:00,40.4,29.2,29.80,WSW,252,10.0,20.0,64,0.00,,,0.00,Wunderground v.1.15,2013-03-18 00:05:00,
2013-03-17 19:15:00,38.7,30.1,29.80,WSW,246,11.0,11.0,71,0.00,,,0.00,Wunderground v.1.15,2013-03-18 00:15:00,
2013-03-17 19:25:00,36.9,30.4,29.79,SSW,198,12.0,20.0,77,0.00,,,0.01,Wunderground v.1.15,2013-03-18 00:25:00,
2013-03-17 19:30:00,36.5,30.9,29.79,SSW,201,13.0,13.0,80,0.00,,,0.01,Wunderground v.1.15,2013-03-18 00:30:00,
2013-03-17 19:40:00,36.0,31.3,29.76,South,173,12.0,20.0,83,0.11,,,0.03,Wunderground v.1.15,2013-03-18 00:40:00,
2013-03-17 19:50:00,35.6,31.5,29.73,SSE,166,13.0,13.0,85,0.39,,,0.09,Wunderground v.1.15,2013-03-18 00:50:00,
2013-03-17 20:00:00,35.6,31.8,29.66,SSE,162,13.0,20.0,86,0.11,,,0.11,Wunderground v.1.15,2013-03-18 01:00:00,
2013-03-17 20:10:00,35.8,32.3,29.69,SE,146,12.0,20.0,87,0.11,,,0.13,Wunderground v.1.15,2013-03-18 01:10:00,
2013-03-17 20:20:00,36.0,32.5,29.70,SSE,148,11.0,11.0,87,0.04,,,0.13,Wunderground v.1.15,2013-03-18 01:20:00,
2013-03-17 20:25:00,36.0,32.5,29.69,SSE,156,10.0,20.0,87,0.00,,,0.13,Wunderground v.1.15,2013-03-18 01:25:00,
2013-03-17 20:35:00,35.9,32.4,29.72,SSE,155,11.0,12.0,87,0.00,,,0.13,Wunderground v.1.15,2013-03-18 01:35:00,
2013-03-17 20:40:00,35.8,32.3,29.72,SSE,149,11.0,20.0,87,0.00,,,0.13,Wunderground v.1.15,2013-03-18 01:40:00,
2013-03-17 20:50:00,35.4,31.9,29.71,SSE,161,9.0,9.0,87,0.00,,,0.13,Wunderground v.1.15,2013-03-18 01:50:00,
2013-03-17 21:00:00,35.3,31.8,29.70,SE,146,7.0,20.0,87,0.00,,,0.13,Wunderground v.1.15,2013-03-18 02:00:00,
2013-03-17 21:10:00,35.6,32.4,29.72,SSE,162,8.0,20.0,88,0.00,,,0.13,Wunderground v.1.15,2013-03-18 02:10:00,
2013-03-17 21:15:00,35.7,32.5,29.72,SSE,158,9.0,20.0,88,0.00,,,0.13,Wunderground v.1.15,2013-03-18 02:15:00,
2013-03-17 21:25:00,36.0,32.5,29.72,SSE,150,11.0,20.0,87,0.00,,,0.13,Wunderground v.1.15,2013-03-18 02:25:00,
2013-03-17 21:30:00,36.0,32.5,29.71,SSE,162,11.0,11.0,87,0.00,,,0.13,Wunderground v.1.15,2013-03-18 02:30:00,
2013-03-17 21:40:00,36.2,33.0,29.72,South,182,10.0,10.0,88,0.00,,,0.13,Wunderground v.1.15,2013-03-18 02:40:00,
2013-03-17 21:50:00,36.9,33.4,29.72,SSE,162,11.0,11.0,87,0.00,,,0.13,Wunderground v.1.15,2013-03-18 02:50:00,
2013-03-17 22:00:00,37.4,33.9,29.72,SSE,163,10.0,20.0,87,0.00,,,0.13,Wunderground v.1.15,2013-03-18 03:00:00,
2013-03-17 22:05:00,37.4,33.9,29.72,SSE,155,10.0,20.0,87,0.00,,,0.13,Wunderground v.1.15,2013-03-18 03:05:00,
2013-03-17 22:10:00,37.4,33.9,29.71,SSE,163,10.0,20.0,87,0.00,,,0.13,Wunderground v.1.15,2013-03-18 03:10:00,
2013-03-17 22:20:00,37.3,33.8,29.70,South,176,11.0,11.0,87,0.00,,,0.13,Wunderground v.1.15,2013-03-18 03:20:00,
2013-03-17 22:30:00,37.4,33.9,29.70,South,181,10.0,10.0,87,0.00,,,0.13,Wunderground v.1.15,2013-03-18 03:30:00,
2013-03-17 22:40:00,37.4,33.9,29.70,SSE,159,10.0,10.0,87,0.00,,,0.13,Wunderground v.1.15,2013-03-18 03:40:00,
2013-03-17 22:50:00,37.4,33.9,29.70,South,186,11.0,11.0,87,0.00,,,0.13,Wunderground v.1.15,2013-03-18 03:50:00,
2013-03-17 22:55:00,37.3,33.8,29.70,South,184,11.0,12.0,87,0.00,,,0.13,Wunderground v.1.15,2013-03-18 03:55:00,
2013-03-17 23:00:00,37.2,33.4,29.71,South,170,12.0,20.0,86,0.00,,,0.13,Wunderground v.1.15,2013-03-18 04:00:00,
2013-03-17 23:05:00,37.1,33.6,29.72,SSW,193,11.0,20.0,87,0.00,,,0.13,Wunderground v.1.15,2013-03-18 04:05:00,
2013-03-17 23:10:00,37.1,33.6,29.72,SE,144,12.0,20.0,87,0.00,,,0.13,Wunderground v.1.15,2013-03-18 04:10:00,
2013-03-17 23:15:00,37.0,33.5,29.73,SSW,196,13.0,20.0,87,0.00,,,0.13,Wunderground v.1.15,2013-03-18 04:15:00,
2013-03-17 23:20:00,36.8,33.3,29.73,SSW,201,15.0,21.0,87,0.00,,,0.13,Wunderground v.1.15,2013-03-18 04:20:00,
2013-03-17 23:30:00,36.4,32.9,29.74,South,185,15.0,20.0,87,0.00,,,0.13,Wunderground v.1.15,2013-03-18 04:30:00,
2013-03-17 23:40:00,36.2,33.0,29.76,SW,222,14.0,20.0,88,0.00,,,0.13,Wunderground v.1.15,2013-03-18 04:40:00,
2013-03-17 23:50:00,36.1,32.9,29.75,SW,219,15.0,15.0,88,0.00,,,0.13,Wunderground v.1.15,2013-03-18 04:50:00,